createdAt,value
2023-06-17T00:01:28.894Z,8.93
2023-06-17T00:03:55.598Z,9.98
2023-06-17T00:06:22.136Z,9.10
2023-06-17T00:08:49.627Z,10.48
2023-06-17T00:11:16.088Z,9.90
2023-06-17T00:13:42.646Z,9.18
2023-06-17T00:16:10.177Z,9.38
2023-06-17T00:18:37.218Z,9.57
2023-06-17T00:21:03.875Z,10.23
2023-06-17T00:23:30.403Z,9.73
2023-06-17T00:25:56.906Z,9.55
2023-06-17T00:28:23.373Z,9.98
2023-06-17T00:30:49.835Z,10.32
2023-06-17T00:33:16.637Z,9.75
2023-06-17T00:35:43.189Z,10.07
2023-06-17T00:38:09.822Z,9.60
2023-06-17T00:40:36.420Z,9.40
2023-06-17T00:43:02.934Z,9.93
2023-06-17T00:45:29.417Z,10.55
2023-06-17T00:47:56.257Z,10.93
2023-06-17T00:50:24.000Z,10.32
2023-06-17T00:52:53.420Z,10.23
2023-06-17T00:55:19.924Z,9.98
2023-06-17T00:57:48.476Z,9.82
2023-06-17T01:00:16.168Z,9.48
2023-06-17T01:02:45.668Z,9.80
2023-06-17T01:05:14.280Z,9.90
2023-06-17T01:07:47.443Z,9.98
2023-06-17T01:10:33.937Z,10.52
2023-06-17T01:13:01.894Z,10.60
2023-06-17T01:15:28.418Z,10.02
2023-06-17T01:17:56.180Z,9.73
2023-06-17T01:20:24.199Z,10.05
2023-06-17T01:22:53.386Z,10.40
2023-06-17T01:25:21.735Z,10.98
2023-06-17T01:27:55.375Z,10.82
2023-06-17T01:30:22.266Z,10.90
2023-06-17T01:33:10.682Z,11.15
2023-06-17T01:35:38.666Z,12.07
2023-06-17T01:38:25.813Z,11.75
2023-06-17T01:40:58.745Z,11.00
2023-06-17T01:43:26.707Z,11.43
2023-06-17T01:45:54.300Z,11.20
2023-06-17T01:48:20.789Z,11.25
2023-06-17T01:50:47.266Z,11.82
2023-06-17T01:53:13.702Z,11.05
2023-06-17T01:55:40.398Z,12.05
2023-06-17T01:58:06.863Z,11.45
2023-06-17T02:00:33.332Z,11.48
2023-06-17T02:02:59.877Z,11.73
2023-06-17T02:05:26.377Z,11.27
2023-06-17T02:07:53.618Z,10.35
2023-06-17T02:10:20.376Z,11.90
2023-06-17T02:12:47.113Z,10.23
2023-06-17T02:15:13.692Z,11.80
2023-06-17T02:17:40.212Z,10.95
2023-06-17T02:20:07.414Z,10.60
2023-06-17T02:22:34.053Z,10.30
2023-06-17T02:25:01.529Z,10.52
2023-06-17T02:27:28.066Z,10.40
2023-06-17T02:29:54.559Z,9.73
2023-06-17T02:32:21.379Z,10.18
2023-06-17T02:34:50.495Z,10.55
2023-06-17T02:37:16.988Z,9.85
2023-06-17T02:39:43.586Z,10.38
2023-06-17T02:42:10.295Z,10.23
2023-06-17T02:44:37.052Z,10.18
2023-06-17T02:47:03.982Z,10.48
2023-06-17T02:49:30.485Z,10.40
2023-06-17T02:51:56.957Z,9.35
2023-06-17T02:54:23.420Z,10.73
2023-06-17T02:56:49.892Z,9.45
2023-06-17T02:59:16.683Z,10.68
2023-06-17T03:01:44.294Z,9.68
2023-06-17T03:04:13.881Z,10.52
2023-06-17T03:06:42.137Z,9.88
2023-06-17T03:09:09.660Z,10.00
2023-06-17T03:11:36.910Z,9.48
2023-06-17T03:14:04.174Z,9.70
2023-06-17T03:16:32.790Z,10.68
2023-06-17T03:19:00.147Z,9.15
2023-06-17T03:21:30.725Z,9.00
2023-06-17T03:24:01.886Z,9.63
2023-06-17T03:26:28.824Z,10.48
2023-06-17T03:28:55.324Z,9.93
2023-06-17T03:31:22.823Z,9.90
2023-06-17T03:33:52.273Z,9.20
2023-06-17T03:36:19.459Z,9.48
2023-06-17T03:38:46.512Z,9.40
2023-06-17T03:41:13.094Z,9.60
2023-06-17T03:43:39.564Z,9.93
2023-06-17T03:46:06.024Z,10.45
2023-06-17T03:48:32.574Z,8.85
2023-06-17T03:50:59.030Z,9.70
2023-06-17T03:53:25.925Z,9.50
2023-06-17T03:55:52.391Z,9.48
2023-06-17T03:58:19.161Z,9.27
2023-06-17T04:00:46.019Z,8.27
2023-06-17T04:03:12.716Z,8.85
2023-06-17T04:05:40.504Z,8.80
2023-06-17T04:08:07.593Z,8.82
2023-06-17T04:10:34.130Z,9.82
2023-06-17T04:13:00.713Z,8.38
2023-06-17T04:15:27.174Z,8.77
2023-06-17T04:17:56.084Z,8.65
2023-06-17T04:20:26.623Z,9.02
2023-06-17T04:22:53.184Z,8.32
2023-06-17T04:25:22.017Z,9.07
2023-06-17T04:27:54.461Z,9.27
2023-06-17T04:30:21.430Z,9.98
2023-06-17T04:32:48.088Z,10.07
2023-06-17T04:35:14.592Z,9.73
2023-06-17T04:37:41.459Z,8.65
2023-06-17T04:40:11.775Z,8.80
2023-06-17T04:42:41.691Z,8.60
2023-06-17T04:45:17.457Z,9.43
2023-06-17T04:47:45.781Z,9.77
2023-06-17T04:50:13.713Z,8.57
2023-06-17T04:52:44.724Z,8.93
2023-06-17T04:55:12.883Z,8.90
2023-06-17T04:57:39.302Z,8.80
2023-06-17T05:00:06.722Z,9.30
2023-06-17T05:02:33.294Z,8.07
2023-06-17T05:04:59.719Z,8.80
2023-06-17T05:07:26.172Z,8.80
2023-06-17T05:09:52.616Z,9.30
2023-06-17T05:12:19.048Z,9.52
2023-06-17T05:14:45.528Z,9.00
2023-06-17T05:17:12.018Z,8.68
2023-06-17T05:20:04.516Z,8.07
2023-06-17T05:26:21.911Z,8.93
2023-06-17T05:36:26.819Z,8.02
2023-06-17T05:38:53.526Z,8.27
2023-06-17T05:41:20.109Z,8.77
2023-06-17T05:43:50.203Z,8.10
2023-06-17T05:46:17.042Z,8.65
2023-06-17T05:48:43.533Z,8.85
2023-06-17T05:51:09.972Z,9.27
2023-06-17T05:53:36.413Z,9.07
2023-06-17T05:56:02.894Z,9.25
2023-06-17T05:58:29.356Z,8.57
2023-06-17T06:00:55.881Z,9.50
2023-06-17T06:03:22.398Z,8.68
2023-06-17T06:05:48.887Z,9.65
2023-06-17T06:08:15.398Z,9.20
2023-06-17T06:10:41.869Z,9.55
2023-06-17T06:13:09.715Z,10.07
2023-06-17T06:15:36.184Z,9.57
2023-06-17T06:18:02.764Z,9.40
2023-06-17T06:20:30.040Z,9.05
2023-06-17T06:22:56.558Z,9.85
2023-06-17T06:25:23.021Z,8.77
2023-06-17T06:27:51.484Z,8.75
2023-06-17T06:30:18.054Z,9.55
2023-06-17T06:32:44.555Z,9.30
2023-06-17T06:35:11.274Z,9.70
2023-06-17T06:37:37.735Z,9.35
2023-06-17T06:40:06.486Z,9.27
2023-06-17T06:42:33.088Z,10.13
2023-06-17T06:44:59.588Z,8.93
2023-06-17T06:47:26.135Z,8.48
2023-06-17T06:49:52.688Z,9.02
2023-06-17T06:52:19.158Z,9.88
2023-06-17T06:55:00.727Z,8.73
2023-06-17T06:57:27.201Z,8.52
2023-06-17T06:59:53.631Z,9.57
2023-06-17T07:02:35.254Z,8.82
2023-06-17T07:05:02.477Z,9.18
2023-06-17T07:07:28.949Z,8.65
2023-06-17T07:09:55.429Z,9.32
2023-06-17T07:12:22.035Z,9.13
2023-06-17T07:14:48.509Z,8.25
2023-06-17T07:17:15.057Z,7.95
2023-06-17T07:19:41.504Z,8.65
2023-06-17T07:22:08.864Z,8.60
2023-06-17T07:24:35.463Z,8.18
2023-06-17T07:27:01.984Z,8.73
2023-06-17T07:29:28.478Z,8.40
2023-06-17T07:31:54.980Z,7.70
2023-06-17T07:34:21.458Z,8.00
2023-06-17T07:36:53.395Z,8.07
2023-06-17T07:39:21.194Z,9.27
2023-06-17T07:41:47.652Z,9.00
2023-06-17T07:44:14.088Z,7.82
2023-06-17T07:46:40.588Z,8.23
2023-06-17T07:49:07.067Z,7.78
2023-06-17T07:51:33.531Z,8.38
2023-06-17T07:53:59.976Z,7.60
2023-06-17T07:56:28.631Z,8.90
2023-06-17T07:58:55.124Z,7.20
2023-06-17T08:01:21.906Z,8.95
2023-06-17T08:03:48.460Z,8.38
2023-06-17T08:06:15.170Z,8.52
2023-06-17T08:08:42.219Z,8.75
2023-06-17T08:11:08.929Z,7.95
2023-06-17T08:13:35.384Z,8.07
2023-06-17T08:16:02.276Z,7.47
2023-06-17T08:18:28.752Z,8.43
2023-06-17T08:20:55.337Z,8.18
2023-06-17T08:23:21.791Z,7.80
2023-06-17T08:25:50.419Z,8.80
2023-06-17T08:28:16.863Z,8.27
2023-06-17T08:30:43.375Z,8.43
2023-06-17T08:33:09.864Z,8.75
2023-06-17T08:35:36.379Z,8.63
2023-06-17T08:38:02.962Z,8.32
2023-06-17T08:40:30.196Z,8.05
2023-06-17T08:43:03.967Z,8.30
2023-06-17T08:45:30.991Z,8.25
2023-06-17T08:47:58.734Z,7.82
2023-06-17T08:50:26.035Z,8.25
2023-06-17T08:52:55.090Z,8.00
2023-06-17T08:55:21.905Z,7.30
2023-06-17T08:57:51.982Z,7.63
2023-06-17T09:00:19.090Z,8.68
2023-06-17T09:02:46.919Z,8.30
2023-06-17T09:05:13.825Z,8.05
2023-06-17T09:07:41.012Z,8.73
2023-06-17T09:10:09.624Z,7.50
2023-06-17T09:12:39.975Z,7.85
2023-06-17T09:15:15.843Z,7.50
2023-06-17T09:20:12.069Z,7.10
2023-06-17T09:22:43.563Z,7.20
2023-06-17T09:25:15.405Z,7.45
2023-06-17T09:28:15.189Z,7.80
2023-06-17T09:30:44.463Z,7.72
2023-06-17T09:33:19.138Z,7.65
2023-06-17T09:35:46.008Z,7.68
2023-06-17T09:38:16.574Z,7.85
2023-06-17T09:40:43.147Z,8.00
2023-06-17T09:43:26.605Z,7.32
2023-06-17T09:45:56.520Z,7.90
2023-06-17T09:48:25.820Z,8.70
2023-06-17T09:50:58.895Z,9.70
2023-06-17T09:53:30.234Z,7.50
2023-06-17T09:55:58.368Z,7.97
2023-06-17T09:58:30.242Z,8.50
2023-06-17T10:01:01.706Z,6.90
2023-06-17T10:03:28.698Z,6.90
2023-06-17T10:06:14.427Z,7.57
2023-06-17T10:08:43.375Z,7.65
2023-06-17T10:11:11.036Z,7.47
2023-06-17T10:13:38.090Z,7.10
2023-06-17T10:16:06.058Z,6.68
2023-06-17T10:18:34.657Z,7.18
2023-06-17T10:21:01.635Z,7.25
2023-06-17T10:23:28.830Z,7.57
2023-06-17T10:25:55.864Z,7.05
2023-06-17T10:28:22.496Z,7.50
2023-06-17T10:30:51.330Z,7.10
2023-06-17T10:33:26.946Z,7.03
2023-06-17T10:36:07.056Z,6.78
2023-06-17T10:38:35.275Z,7.32
2023-06-17T10:41:02.675Z,7.18
2023-06-17T10:43:36.914Z,6.65
2023-06-17T10:46:03.476Z,6.63
2023-06-17T10:48:31.590Z,7.10
2023-06-17T10:51:03.445Z,6.35
2023-06-17T10:53:33.304Z,7.38
2023-06-17T10:56:01.538Z,6.95
2023-06-17T10:58:32.666Z,8.30
2023-06-17T11:01:00.510Z,7.30
2023-06-17T11:03:27.490Z,6.78
2023-06-17T11:05:55.077Z,6.50
2023-06-17T11:08:21.606Z,7.78
2023-06-17T11:10:48.112Z,7.10
2023-06-17T11:13:14.666Z,7.13
2023-06-17T11:15:41.128Z,6.65
2023-06-17T11:18:09.166Z,6.80
2023-06-17T11:20:36.276Z,7.07
2023-06-17T11:23:06.164Z,7.40
2023-06-17T11:25:44.488Z,8.02
2023-06-17T11:28:12.770Z,6.97
2023-06-17T11:30:41.480Z,6.47
2023-06-17T11:33:09.219Z,6.53
2023-06-17T11:35:36.297Z,6.90
2023-06-17T11:38:03.346Z,6.50
2023-06-17T11:40:29.775Z,6.95
2023-06-17T11:42:58.496Z,6.47
2023-06-17T11:45:25.929Z,7.60
2023-06-17T11:47:52.424Z,6.63
2023-06-17T11:50:19.944Z,6.60
2023-06-17T11:52:57.739Z,6.25
2023-06-17T11:55:34.485Z,5.80
2023-06-17T11:58:02.708Z,6.50
2023-06-17T12:00:30.596Z,5.80
2023-06-17T12:03:00.323Z,6.18
2023-06-17T12:05:28.256Z,6.45
2023-06-17T12:07:57.906Z,5.72
2023-06-17T12:10:24.794Z,5.57
2023-06-17T12:12:51.878Z,5.97
2023-06-17T12:18:10.493Z,5.93
2023-06-17T12:20:40.536Z,5.90
2023-06-17T12:23:07.647Z,5.20
2023-06-17T12:25:35.284Z,5.60
2023-06-17T12:28:06.558Z,6.60
2023-06-17T12:30:34.709Z,5.80
2023-06-17T12:33:01.552Z,6.18
2023-06-17T12:35:28.460Z,6.05
2023-06-17T12:37:56.351Z,5.93
2023-06-17T12:40:22.929Z,6.60
2023-06-17T12:42:49.407Z,6.32
2023-06-17T12:45:16.145Z,5.82
2023-06-17T12:47:42.685Z,6.07
2023-06-17T12:50:10.251Z,5.57
2023-06-17T12:52:37.169Z,5.78
2023-06-17T12:55:06.072Z,5.78
2023-06-17T12:57:32.981Z,5.60
2023-06-17T13:00:01.132Z,5.38
2023-06-17T13:02:27.689Z,5.97
2023-06-17T13:04:55.031Z,6.10
2023-06-17T13:07:21.567Z,6.07
2023-06-17T13:09:48.008Z,6.22
2023-06-17T13:12:14.818Z,6.13
2023-06-17T13:14:41.306Z,6.28
2023-06-17T13:17:07.974Z,5.32
2023-06-17T13:19:34.599Z,6.20
2023-06-17T13:22:01.039Z,6.05
2023-06-17T13:24:27.552Z,5.93
2023-06-17T13:26:54.122Z,5.93
2023-06-17T13:29:22.424Z,6.20
2023-06-17T13:31:49.242Z,6.20
2023-06-17T13:34:15.790Z,6.35
2023-06-17T13:36:46.037Z,5.75
2023-06-17T13:39:12.882Z,5.53
2023-06-17T13:41:39.331Z,5.15
2023-06-17T13:44:06.889Z,6.20
2023-06-17T13:46:33.405Z,5.95
2023-06-17T13:49:00.201Z,5.85
2023-06-17T13:51:26.828Z,5.53
2023-06-17T13:53:53.320Z,6.18
2023-06-17T13:56:19.829Z,5.13
2023-06-17T13:58:46.302Z,5.47
2023-06-17T14:01:12.797Z,4.85
2023-06-17T14:03:39.357Z,4.90
2023-06-17T14:06:06.686Z,5.03
2023-06-17T14:08:33.310Z,5.13
2023-06-17T14:10:59.842Z,5.05
2023-06-17T14:13:26.269Z,5.35
2023-06-17T14:15:52.775Z,5.32
2023-06-17T14:18:19.280Z,4.88
2023-06-17T14:20:45.774Z,5.70
2023-06-17T14:23:12.385Z,5.20
2023-06-17T14:25:38.867Z,4.75
2023-06-17T14:28:05.468Z,4.95
2023-06-17T14:30:31.965Z,4.90
2023-06-17T14:32:58.660Z,5.45
2023-06-17T14:35:25.125Z,5.05
2023-06-17T14:37:51.601Z,4.75
2023-06-17T14:40:18.407Z,4.90
2023-06-17T14:42:45.961Z,5.15
2023-06-17T14:45:13.811Z,4.47
2023-06-17T14:47:40.927Z,4.85
2023-06-17T14:50:09.558Z,5.30
2023-06-17T14:52:36.040Z,4.72
2023-06-17T14:55:02.479Z,5.20
2023-06-17T14:57:29.412Z,5.07
2023-06-17T14:59:56.898Z,5.63
2023-06-17T15:02:43.310Z,4.95
2023-06-17T15:05:09.969Z,5.97
2023-06-17T15:07:36.407Z,5.85
2023-06-17T15:10:04.260Z,5.47
2023-06-17T15:12:30.922Z,6.07
2023-06-17T15:14:57.466Z,6.45
2023-06-17T15:17:23.904Z,5.72
2023-06-17T15:19:50.357Z,5.68
2023-06-17T15:22:16.851Z,5.80
2023-06-17T15:24:43.330Z,5.50
2023-06-17T15:27:09.829Z,5.57
2023-06-17T15:29:36.325Z,4.95
2023-06-17T15:32:02.918Z,4.80
2023-06-17T15:34:29.405Z,4.40
2023-06-17T15:36:55.862Z,4.75
2023-06-17T15:39:25.440Z,5.00
2023-06-17T15:41:53.097Z,5.00
2023-06-17T15:44:20.528Z,4.80
2023-06-17T15:46:47.045Z,4.88
2023-06-17T15:49:13.691Z,4.50
2023-06-17T15:51:40.331Z,5.20
2023-06-17T15:54:06.977Z,4.53
2023-06-17T15:56:35.725Z,4.93
2023-06-17T15:59:02.475Z,4.93
2023-06-17T16:01:29.379Z,4.68
2023-06-17T16:03:57.654Z,5.10
2023-06-17T16:06:24.136Z,4.80
2023-06-17T16:08:52.133Z,5.25
2023-06-17T16:11:19.524Z,5.22
2023-06-17T16:13:46.152Z,4.60
2023-06-17T16:16:12.650Z,4.38
2023-06-17T16:18:39.616Z,5.10
2023-06-17T16:21:06.075Z,5.35
2023-06-17T16:23:32.565Z,4.90
2023-06-17T16:25:59.997Z,5.45
2023-06-17T16:28:26.446Z,5.07
2023-06-17T16:30:52.922Z,4.72
2023-06-17T16:33:19.439Z,4.80
2023-06-17T16:35:45.893Z,4.75
2023-06-17T16:38:12.383Z,5.13
2023-06-17T16:40:38.832Z,5.20
2023-06-17T16:43:05.384Z,5.07
2023-06-17T16:45:31.881Z,5.63
2023-06-17T16:47:58.476Z,6.70
2023-06-17T16:50:25.089Z,6.18
2023-06-17T16:52:51.706Z,6.97
2023-06-17T16:55:18.161Z,7.50
2023-06-17T16:57:44.620Z,6.72
2023-06-17T17:00:12.463Z,7.05
2023-06-17T17:02:39.115Z,7.57
2023-06-17T17:05:06.079Z,8.07
2023-06-17T17:07:32.547Z,7.97
2023-06-17T17:09:59.109Z,7.85
2023-06-17T17:12:25.615Z,7.78
2023-06-17T17:14:52.370Z,7.88
2023-06-17T17:17:18.907Z,7.30
2023-06-17T17:19:45.609Z,7.90
2023-06-17T17:22:12.111Z,7.53
2023-06-17T17:24:39.017Z,7.70
2023-06-17T17:27:07.729Z,8.00
2023-06-17T17:29:35.199Z,7.72
2023-06-17T17:32:01.725Z,7.57
2023-06-17T17:34:28.227Z,7.45
2023-06-17T17:36:54.691Z,8.15
2023-06-17T17:39:21.270Z,7.60
2023-06-17T17:41:47.758Z,7.85
2023-06-17T17:44:14.285Z,7.53
2023-06-17T17:46:41.643Z,8.38
2023-06-17T17:49:09.572Z,7.63
2023-06-17T17:51:36.177Z,8.07
2023-06-17T17:54:02.630Z,7.65
2023-06-17T17:56:29.169Z,7.68
2023-06-17T17:58:55.708Z,6.82
2023-06-17T18:01:22.230Z,6.85
2023-06-17T18:03:48.736Z,6.53
2023-06-17T18:06:15.440Z,7.28
2023-06-17T18:08:41.882Z,6.32
2023-06-17T18:11:08.416Z,7.13
2023-06-17T18:13:34.870Z,6.43
2023-06-17T18:16:01.348Z,7.30
2023-06-17T18:18:28.033Z,6.50
2023-06-17T18:20:54.524Z,6.53
2023-06-17T18:23:21.219Z,7.03
2023-06-17T18:25:47.693Z,6.70
2023-06-17T18:28:14.357Z,6.05
2023-06-17T18:30:41.132Z,6.55
2023-06-17T18:33:07.682Z,6.75
2023-06-17T18:35:34.252Z,6.60
2023-06-17T18:38:00.741Z,7.60
2023-06-17T18:40:27.244Z,6.30
2023-06-17T18:42:53.740Z,7.13
2023-06-17T18:45:20.217Z,7.47
2023-06-17T18:47:47.437Z,6.88
2023-06-17T18:50:13.992Z,7.32
2023-06-17T18:52:41.703Z,7.05
2023-06-17T18:55:08.933Z,7.32
2023-06-17T18:57:35.636Z,7.20
2023-06-17T19:00:02.102Z,6.25
2023-06-17T19:02:29.757Z,6.40
2023-06-17T19:04:56.836Z,6.75
2023-06-17T19:07:23.309Z,6.75
2023-06-17T19:09:51.159Z,7.75
2023-06-17T19:12:17.703Z,6.57
2023-06-17T19:14:44.212Z,6.93
2023-06-17T19:17:10.832Z,6.97
2023-06-17T19:19:37.287Z,6.93
2023-06-17T19:22:03.936Z,6.45
2023-06-17T19:24:30.517Z,7.25
2023-06-17T19:26:57.062Z,6.90
2023-06-17T19:29:23.504Z,6.22
2023-06-17T19:31:49.938Z,7.05
2023-06-17T19:34:17.326Z,7.18
2023-06-17T19:36:43.770Z,6.70
2023-06-17T19:39:10.386Z,7.65
2023-06-17T19:41:36.886Z,6.93
2023-06-17T19:44:05.958Z,7.13
2023-06-17T19:46:32.512Z,7.43
2023-06-17T19:48:58.997Z,6.55
2023-06-17T19:51:25.493Z,7.38
2023-06-17T19:53:51.975Z,7.38
2023-06-17T19:56:19.486Z,6.57
2023-06-17T19:58:46.244Z,7.30
2023-06-17T20:01:12.769Z,8.07
2023-06-17T20:03:39.587Z,7.55
2023-06-17T20:06:06.094Z,7.68
2023-06-17T20:08:33.025Z,7.95
2023-06-17T20:10:59.544Z,7.82
2023-06-17T20:13:25.993Z,7.03
2023-06-17T20:15:52.794Z,7.78
2023-06-17T20:18:19.330Z,7.78
2023-06-17T20:20:45.929Z,8.48
2023-06-17T20:23:12.973Z,7.65
2023-06-17T20:25:39.473Z,7.57
2023-06-17T20:28:06.161Z,8.73
2023-06-17T20:30:32.638Z,7.43
2023-06-17T20:32:59.111Z,7.97
2023-06-17T20:35:25.679Z,7.97
2023-06-17T20:37:52.961Z,8.43
2023-06-17T20:40:19.595Z,11.52
2023-06-17T20:42:46.263Z,8.60
2023-06-17T20:45:12.694Z,8.93
2023-06-17T20:47:39.235Z,8.10
2023-06-17T20:50:06.296Z,8.27
2023-06-17T20:52:32.776Z,8.25
2023-06-17T20:54:59.257Z,8.20
2023-06-17T20:57:25.785Z,7.90
2023-06-17T20:59:53.791Z,7.72
2023-06-17T21:02:20.685Z,8.48
2023-06-17T21:04:47.372Z,8.52
2023-06-17T21:07:13.882Z,8.20
2023-06-17T21:09:40.877Z,7.60
2023-06-17T21:12:07.653Z,7.90
2023-06-17T21:14:34.125Z,7.53
2023-06-17T21:17:00.880Z,8.38
2023-06-17T21:19:29.847Z,7.82
2023-06-17T21:21:57.973Z,7.82
2023-06-17T21:24:24.557Z,8.35
2023-06-17T21:26:51.018Z,7.65
2023-06-17T21:29:17.600Z,8.85
2023-06-17T21:31:44.203Z,8.50
2023-06-17T21:34:10.686Z,7.63
2023-06-17T21:36:37.276Z,8.85
2023-06-17T21:39:03.929Z,8.15
2023-06-17T21:41:30.473Z,8.40
2023-06-17T21:43:57.020Z,8.52
2023-06-17T21:46:29.616Z,8.60
2023-06-17T21:48:56.441Z,7.90
2023-06-17T21:51:23.386Z,9.05
2023-06-17T21:53:49.858Z,8.70
2023-06-17T21:56:16.428Z,8.55
2023-06-17T21:58:42.886Z,8.23
2023-06-17T22:01:09.341Z,9.52
2023-06-17T22:03:35.967Z,8.80
2023-06-17T22:06:03.466Z,7.78
2023-06-17T22:08:41.780Z,7.97
2023-06-17T22:11:16.091Z,8.13
2023-06-17T22:13:42.630Z,8.25
2023-06-17T22:16:09.427Z,8.73
2023-06-17T22:18:42.284Z,8.75
2023-06-17T22:21:08.783Z,9.02
2023-06-17T22:26:49.831Z,8.75
2023-06-17T22:29:22.405Z,8.63
2023-06-17T22:31:49.113Z,9.10
2023-06-17T22:34:15.593Z,8.85
2023-06-17T22:36:42.080Z,9.80
2023-06-17T22:39:09.577Z,9.38
2023-06-17T22:41:36.721Z,9.20
2023-06-17T22:44:03.589Z,10.05
2023-06-17T22:50:24.116Z,8.80
2023-06-17T22:53:23.024Z,9.40
2023-06-17T22:56:31.832Z,9.45
2023-06-17T22:59:13.198Z,10.10
2023-06-17T23:01:55.915Z,10.27
2023-06-17T23:04:39.381Z,8.93
2023-06-17T23:07:19.326Z,8.90
2023-06-17T23:09:50.194Z,9.00
2023-06-17T23:12:22.697Z,9.77
2023-06-17T23:41:30.707Z,9.90
2023-06-17T23:43:57.139Z,9.68
2023-06-17T23:46:27.747Z,9.70
2023-06-17T23:48:54.822Z,9.40
2023-06-17T23:51:21.729Z,9.95
2023-06-17T23:53:48.506Z,9.55
2023-06-17T23:56:15.028Z,11.05
2023-06-17T23:58:41.488Z,10.25
